Mombongo Airport


Codes: FZFR/
Name: Mombongo Airport
City: Mombongo
Country: Congo [DRC]
Elevation: 1476 ft.

Photos at Mombongo Airport


   Photos courtesy of SpottingLog. You can add your own sightings and photos by signing up for a free trial today.



No photos found.

Weather at Mombongo Airport


Time (UTC)DescriptionTempratureWindCloud coverageVisibilityPressureHumidity
16-Jun-2024 09:00Light Rain23°C4 mph, NW100%10000m1013hPa95%
16-Jun-2024 12:00Light Rain23°C4 mph, N100%10000m1012hPa92%
16-Jun-2024 15:00Light Rain23°C2 mph, NE100%10000m1012hPa92%
16-Jun-2024 18:00Overcast Clouds22°C0 mph, SE100%10000m1012hPa89%
16-Jun-2024 21:00Overcast Clouds22°C2 mph, SW100%10000m1012hPa87%
17-Jun-2024 00:00Overcast Clouds22°C2 mph, NW100%10000m1011hPa87%
17-Jun-2024 03:00Light Rain22°C2 mph, N100%10000m1012hPa90%
17-Jun-2024 06:00Overcast Clouds23°C2 mph, N99%10000m1014hPa87%
17-Jun-2024 09:00Overcast Clouds25°C2 mph, NE98%10000m1014hPa76%
17-Jun-2024 12:00Overcast Clouds25°C2 mph, N98%10000m1012hPa77%
17-Jun-2024 15:00Overcast Clouds24°C2 mph, NW93%10000m1011hPa79%
17-Jun-2024 18:00Overcast Clouds22°C2 mph, N86%10000m1012hPa84%
17-Jun-2024 21:00Broken Clouds22°C0 mph, SE72%10000m1012hPa87%
18-Jun-2024 00:00Broken Clouds21°C2 mph, W52%10000m1011hPa89%
18-Jun-2024 03:00Scattered Clouds20°C2 mph, N38%10000m1012hPa91%
18-Jun-2024 06:00Scattered Clouds23°C2 mph, NW29%10000m1013hPa77%
18-Jun-2024 09:00Clear Sky31°C0 mph, NW9%10000m1013hPa51%
18-Jun-2024 12:00Clear Sky32°C0 mph, E8%10000m1010hPa43%
18-Jun-2024 15:00Few Clouds31°C0 mph, NE21%10000m1008hPa47%
18-Jun-2024 18:00Few Clouds25°C2 mph, SW19%10000m1010hPa72%
18-Jun-2024 21:00Few Clouds24°C2 mph, S23%10000m1010hPa76%
19-Jun-2024 00:00Few Clouds23°C0 mph, SE15%10000m1010hPa77%
19-Jun-2024 03:00Few Clouds22°C0 mph, SW19%10000m1010hPa81%
19-Jun-2024 06:00Scattered Clouds24°C4 mph, N50%10000m1012hPa74%
19-Jun-2024 09:00Overcast Clouds31°C2 mph, NW100%10000m1012hPa51%
19-Jun-2024 12:00Overcast Clouds33°C0 mph, N97%10000m1008hPa41%
19-Jun-2024 15:00Broken Clouds32°C2 mph, NE71%10000m1007hPa45%
19-Jun-2024 18:00Broken Clouds26°C4 mph, S76%10000m1009hPa68%
19-Jun-2024 21:00Light Rain24°C0 mph, SE65%10000m1011hPa78%
20-Jun-2024 00:00Light Rain23°C2 mph, NE60%10000m1011hPa86%
20-Jun-2024 03:00Light Rain22°C2 mph, NE54%10000m1011hPa90%
20-Jun-2024 06:00Broken Clouds24°C2 mph, NE65%10000m1012hPa81%
20-Jun-2024 09:00Scattered Clouds31°C4 mph, NE27%10000m1012hPa51%
20-Jun-2024 12:00Scattered Clouds35°C0 mph, NE37%10000m1008hPa40%
20-Jun-2024 15:00Light Rain32°C0 mph, N36%10000m1007hPa49%
20-Jun-2024 18:00Light Rain26°C2 mph, SE45%10000m1008hPa69%
20-Jun-2024 21:00Light Rain23°C2 mph, W28%10000m1011hPa82%
21-Jun-2024 00:00Scattered Clouds23°C2 mph, NW37%10000m1010hPa84%
21-Jun-2024 03:00Overcast Clouds22°C2 mph, W93%10000m1011hPa85%
21-Jun-2024 06:00Broken Clouds25°C0 mph, E69%10000m1013hPa74%